createdAt,value
2023-02-02T00:00:25.403Z,99207.34
2023-02-02T00:02:51.790Z,99207.34
2023-02-02T00:05:18.148Z,99207.78
2023-02-02T00:10:38.233Z,99205.47
2023-02-02T00:13:04.622Z,99202.22
2023-02-02T00:15:30.970Z,99200.34
2023-02-02T00:17:57.314Z,99196.38
2023-02-02T00:20:23.664Z,99205.50
2023-02-02T00:25:33.991Z,99187.22
2023-02-02T00:28:00.335Z,99194.44
2023-02-02T00:30:26.779Z,99188.53
2023-02-02T00:32:53.211Z,99182.84
2023-02-02T00:35:19.586Z,99191.63
2023-02-02T00:40:39.776Z,99182.22
2023-02-02T00:43:06.144Z,99186.91
2023-02-02T00:45:32.511Z,99194.53
2023-02-02T00:47:58.875Z,99191.31
2023-02-02T00:50:25.220Z,99190.56
2023-02-02T00:55:35.368Z,99185.78
2023-02-02T00:58:01.798Z,99193.25
2023-02-02T01:00:28.171Z,99190.13
2023-02-02T01:02:54.548Z,99196.09
2023-02-02T01:05:20.910Z,99189.34
2023-02-02T01:07:47.299Z,99191.75
2023-02-02T01:10:13.653Z,99192.63
2023-02-02T01:12:39.967Z,99202.50
2023-02-02T01:15:06.350Z,99196.63
2023-02-02T01:17:32.672Z,99192.63
2023-02-02T01:19:59.033Z,99193.50
2023-02-02T01:22:25.334Z,99193.84
2023-02-02T01:24:51.794Z,99192.72
2023-02-02T01:27:18.156Z,99191.91
2023-02-02T01:29:44.539Z,99183.22
2023-02-02T01:32:10.875Z,99185.50
2023-02-02T01:34:37.223Z,99180.03
2023-02-02T01:37:03.580Z,99180.38
2023-02-02T01:39:29.955Z,99189.13
2023-02-02T01:41:56.299Z,99184.50
2023-02-02T01:44:22.645Z,99183.22
2023-02-02T01:46:49.038Z,99181.31
2023-02-02T01:49:15.393Z,99184.25
2023-02-02T01:51:41.720Z,99182.88
2023-02-02T01:54:08.093Z,99179.75
2023-02-02T01:56:34.417Z,99185.66
2023-02-02T01:59:00.729Z,99183.75
2023-02-02T02:01:27.095Z,99189.72
2023-02-02T02:03:53.475Z,99191.03
2023-02-02T02:06:19.833Z,99198.03
2023-02-02T02:08:46.216Z,99189.22
2023-02-02T02:14:06.505Z,99194.94
2023-02-02T02:16:32.951Z,99189.28
2023-02-02T02:18:59.326Z,99188.09
2023-02-02T02:21:25.648Z,99195.53
2023-02-02T02:23:51.982Z,99191.28
2023-02-02T02:29:02.408Z,99190.94
2023-02-02T02:31:28.834Z,99185.41
2023-02-02T02:33:55.135Z,99179.53
2023-02-02T02:36:21.493Z,99177.75
2023-02-02T02:38:47.816Z,99176.25
2023-02-02T02:44:07.995Z,99182.63
2023-02-02T02:46:34.356Z,99187.75
2023-02-02T02:49:00.663Z,99192.56
2023-02-02T02:51:27.015Z,99196.06
2023-02-02T02:53:53.330Z,99196.06
2023-02-02T02:59:03.308Z,99189.03
2023-02-02T03:01:29.691Z,99200.47
2023-02-02T03:03:56.098Z,99201.97
2023-02-02T03:06:22.403Z,99200.56
2023-02-02T03:08:50.169Z,99198.03
2023-02-02T03:14:00.546Z,99197.00
2023-02-02T03:16:26.847Z,99201.25
2023-02-02T03:18:53.227Z,99196.94
2023-02-02T03:21:19.569Z,99188.16
2023-02-02T03:23:45.896Z,99192.16
2023-02-02T03:29:06.280Z,99185.41
2023-02-02T03:31:32.703Z,99185.00
2023-02-02T03:33:59.166Z,99198.41
2023-02-02T03:36:25.510Z,99193.66
2023-02-02T03:38:51.842Z,99198.47
2023-02-02T03:44:01.945Z,99194.06
2023-02-02T03:46:28.324Z,99204.91
2023-02-02T03:48:54.670Z,99192.91
2023-02-02T03:51:23.846Z,99191.28
2023-02-02T03:53:50.189Z,99196.50
2023-02-02T03:59:00.279Z,99187.66
2023-02-02T04:01:26.588Z,99194.50
2023-02-02T04:03:52.943Z,99193.31
2023-02-02T04:06:19.259Z,99188.16
2023-02-02T04:08:45.592Z,99202.13
2023-02-02T04:14:06.065Z,99193.34
2023-02-02T04:16:32.426Z,99197.69
2023-02-02T04:18:58.713Z,99189.72
2023-02-02T04:21:25.023Z,99183.81
2023-02-02T04:23:54.138Z,99184.25
2023-02-02T04:29:14.579Z,99183.13
2023-02-02T04:31:43.835Z,99188.94
2023-02-02T04:34:10.180Z,99192.06
2023-02-02T04:36:36.476Z,99191.44
2023-02-02T04:39:05.613Z,99197.34
2023-02-02T04:44:18.708Z,99199.63
2023-02-02T04:46:45.002Z,99186.94
2023-02-02T04:49:11.355Z,99188.53
2023-02-02T04:51:40.473Z,99185.66
2023-02-02T04:54:06.825Z,99190.16
2023-02-02T04:56:33.218Z,99185.00
2023-02-02T04:59:02.348Z,99191.03
2023-02-02T05:01:28.658Z,99200.06
2023-02-02T05:03:57.802Z,99188.25
2023-02-02T05:06:24.127Z,99195.34
2023-02-02T05:08:53.233Z,99197.34
2023-02-02T05:11:22.323Z,99201.69
2023-02-02T05:13:51.517Z,99198.91
2023-02-02T05:16:17.869Z,99202.81
2023-02-02T05:18:44.205Z,99203.19
2023-02-02T05:21:13.320Z,99203.59
2023-02-02T05:23:39.613Z,99204.53
2023-02-02T05:26:05.985Z,99207.59
2023-02-02T05:28:32.315Z,99203.59
2023-02-02T05:31:01.490Z,99207.22
2023-02-02T05:33:30.671Z,99205.69
2023-02-02T05:35:56.963Z,99205.19
2023-02-02T05:38:23.276Z,99199.69
2023-02-02T05:40:49.607Z,99198.91
2023-02-02T05:43:16.073Z,99200.41
2023-02-02T05:45:45.202Z,99200.47
2023-02-02T05:48:14.323Z,99204.75
2023-02-02T05:50:43.438Z,99208.56
2023-02-02T05:53:09.739Z,99208.66
2023-02-02T05:55:38.856Z,99214.47
2023-02-02T05:58:05.195Z,99198.28
2023-02-02T06:00:34.338Z,99205.03
2023-02-02T06:03:03.535Z,99203.53
2023-02-02T06:05:32.717Z,99205.53
2023-02-02T06:08:01.837Z,99203.19
2023-02-02T06:10:30.941Z,99198.69
2023-02-02T06:12:57.325Z,99198.97
2023-02-02T06:15:25.120Z,99201.41
2023-02-02T06:17:52.651Z,99194.53
2023-02-02T06:20:22.281Z,99199.56
2023-02-02T06:22:48.866Z,99195.59
2023-02-02T06:25:16.074Z,99198.81
2023-02-02T06:27:42.436Z,99191.91
2023-02-02T06:33:04.618Z,99195.38
2023-02-02T06:35:30.966Z,99199.44
2023-02-02T06:37:57.305Z,99198.50
2023-02-02T06:40:23.722Z,99199.66
2023-02-02T06:42:50.044Z,99199.09
2023-02-02T06:48:00.206Z,99199.31
2023-02-02T06:50:26.555Z,99189.47
2023-02-02T06:52:52.918Z,99194.53
2023-02-02T06:55:21.378Z,99197.66
2023-02-02T06:57:47.738Z,99192.19
2023-02-02T07:02:58.402Z,99192.25
2023-02-02T07:05:25.082Z,99191.31
2023-02-02T07:07:51.937Z,99183.91
2023-02-02T07:11:09.504Z,99179.41
2023-02-02T07:13:05.450Z,99182.19
2023-02-02T07:18:22.437Z,99177.84
2023-02-02T07:20:48.826Z,99178.72
2023-02-02T07:23:15.193Z,99178.28
2023-02-02T07:25:43.604Z,99178.63
2023-02-02T07:28:10.486Z,99181.06
2023-02-02T07:33:21.030Z,99179.78
2023-02-02T07:35:47.909Z,99190.59
2023-02-02T07:38:17.803Z,99185.03
2023-02-02T07:40:44.243Z,99194.09
2023-02-02T07:43:10.875Z,99179.94
2023-02-02T07:48:27.589Z,99191.41
2023-02-02T07:50:54.097Z,99192.09
2023-02-02T07:53:21.550Z,99207.47
2023-02-02T07:55:48.999Z,99204.66
2023-02-02T07:58:16.428Z,99206.69
2023-02-02T08:03:27.793Z,99212.03
2023-02-02T08:05:55.040Z,99212.25
2023-02-02T08:08:22.297Z,99208.31
2023-02-02T08:10:48.687Z,99213.88
2023-02-02T08:13:15.925Z,99212.81
2023-02-02T08:18:26.511Z,99218.06
2023-02-02T08:20:52.848Z,99223.19
2023-02-02T08:23:19.192Z,99220.34
2023-02-02T08:25:45.605Z,99224.00
2023-02-02T08:28:11.977Z,99225.66
2023-02-02T08:33:22.278Z,99227.47
2023-02-02T08:35:48.611Z,99227.91
2023-02-02T08:38:15.015Z,99225.47
2023-02-02T08:40:41.463Z,99230.69
2023-02-02T08:43:08.486Z,99220.34
2023-02-02T08:48:20.984Z,99236.13
2023-02-02T08:50:47.732Z,99228.28
2023-02-02T08:53:14.075Z,99242.13
2023-02-02T08:55:40.425Z,99240.06
2023-02-02T08:58:06.807Z,99237.38
2023-02-02T09:00:33.206Z,99225.53
2023-02-02T09:02:59.554Z,99219.09
2023-02-02T09:05:26.238Z,99227.91
2023-02-02T09:07:52.787Z,99225.44
2023-02-02T09:10:19.203Z,99235.56
2023-02-02T09:12:45.555Z,99236.97
2023-02-02T09:15:11.916Z,99236.00
2023-02-02T09:17:38.279Z,99231.66
2023-02-02T09:20:04.631Z,99233.03
2023-02-02T09:22:30.940Z,99233.66
2023-02-02T09:24:57.354Z,99238.44
2023-02-02T09:27:24.773Z,99238.78
2023-02-02T09:29:51.240Z,99251.03
2023-02-02T09:32:17.712Z,99251.47
2023-02-02T09:34:45.021Z,99262.63
2023-02-02T09:37:12.327Z,99258.97
2023-02-02T09:39:38.777Z,99261.81
2023-02-02T09:42:07.061Z,99263.84
2023-02-02T09:44:33.509Z,99269.25
2023-02-02T09:47:00.018Z,99274.44
2023-02-02T09:49:26.419Z,99273.66
2023-02-02T09:51:52.767Z,99272.78
2023-02-02T09:54:19.112Z,99276.03
2023-02-02T09:56:45.447Z,99286.66
2023-02-02T09:59:19.841Z,99288.69
2023-02-02T10:01:46.344Z,99291.16
2023-02-02T10:04:12.742Z,99297.50
2023-02-02T10:06:39.112Z,99303.81
2023-02-02T10:09:05.481Z,99304.19
2023-02-02T10:11:31.841Z,99311.66
2023-02-02T10:13:58.186Z,99310.88
2023-02-02T10:16:24.665Z,99313.66
2023-02-02T10:21:34.829Z,99318.00
2023-02-02T10:24:02.392Z,99323.13
2023-02-02T10:26:28.861Z,99326.28
2023-02-02T10:28:55.259Z,99325.47
2023-02-02T10:31:21.831Z,99324.28
2023-02-02T10:36:32.358Z,99332.94
2023-02-02T10:38:58.702Z,99332.59
2023-02-02T10:41:25.070Z,99336.16
2023-02-02T10:43:51.423Z,99346.06
2023-02-02T10:46:17.823Z,99348.47
2023-02-02T10:51:34.465Z,99354.81
2023-02-02T10:54:00.826Z,99361.13
2023-02-02T10:56:27.128Z,99369.47
2023-02-02T10:58:53.474Z,99380.94
2023-02-02T11:01:20.786Z,99373.81
2023-02-02T11:06:37.508Z,99383.72
2023-02-02T11:09:03.968Z,99389.69
2023-02-02T11:11:30.327Z,99395.66
2023-02-02T11:13:56.655Z,99398.03
2023-02-02T11:16:23.094Z,99406.72
2023-02-02T11:21:33.383Z,99409.50
2023-02-02T11:23:59.754Z,99414.25
2023-02-02T11:26:26.614Z,99409.91
2023-02-02T11:28:53.040Z,99414.69
2023-02-02T11:31:20.371Z,99410.69
2023-02-02T11:36:37.583Z,99410.25
2023-02-02T11:39:03.995Z,99424.50
2023-02-02T11:41:30.379Z,99419.34
2023-02-02T11:43:56.775Z,99424.03
2023-02-02T11:46:23.183Z,99426.03
2023-02-02T11:51:40.249Z,99432.72
2023-02-02T11:54:06.716Z,99436.72
2023-02-02T11:56:33.246Z,99447.75
2023-02-02T11:58:59.653Z,99445.41
2023-02-02T12:01:26.061Z,99441.84
2023-02-02T12:06:42.237Z,99460.13
2023-02-02T12:09:09.496Z,99457.75
2023-02-02T12:11:35.870Z,99459.34
2023-02-02T12:14:02.211Z,99466.91
2023-02-02T12:16:28.630Z,99471.22
2023-02-02T12:21:39.131Z,99479.56
2023-02-02T12:24:05.499Z,99476.41
2023-02-02T12:26:31.932Z,99481.97
2023-02-02T12:28:58.375Z,99487.53
2023-02-02T12:31:24.741Z,99493.84
2023-02-02T12:33:51.138Z,99492.31
2023-02-02T12:36:17.950Z,99494.31
2023-02-02T12:38:44.391Z,99497.84
2023-02-02T12:41:10.755Z,99508.97
2023-02-02T12:43:37.127Z,99515.69
2023-02-02T12:46:03.473Z,99523.63
2023-02-02T12:48:29.875Z,99524.03
2023-02-02T12:50:56.228Z,99533.16
2023-02-02T12:53:22.663Z,99537.91
2023-02-02T12:55:48.981Z,99550.59
2023-02-02T12:58:16.173Z,99560.13
2023-02-02T13:00:42.598Z,99570.81
2023-02-02T13:03:08.965Z,99574.00
2023-02-02T13:05:47.464Z,99577.53
2023-02-02T13:08:13.845Z,99582.69
2023-02-02T13:10:40.232Z,99577.16
2023-02-02T13:13:06.625Z,99586.69
2023-02-02T13:15:32.983Z,99598.59
2023-02-02T13:17:59.378Z,99603.34
2023-02-02T13:20:25.994Z,99612.47
2023-02-02T13:22:52.520Z,99616.03
2023-02-02T13:25:18.880Z,99610.91
2023-02-02T13:27:45.318Z,99625.56
2023-02-02T13:30:11.690Z,99624.78
2023-02-02T13:32:38.065Z,99625.56
2023-02-02T13:35:04.481Z,99640.66
2023-02-02T13:40:15.587Z,99654.91
2023-02-02T13:42:41.973Z,99666.00
2023-02-02T13:45:08.367Z,99665.63
2023-02-02T13:47:34.738Z,99675.50
2023-02-02T13:50:01.152Z,99675.56
2023-02-02T13:55:12.421Z,99685.03
2023-02-02T13:57:38.825Z,99689.03
2023-02-02T14:00:05.937Z,99691.78
2023-02-02T14:02:33.338Z,99692.94
2023-02-02T14:04:59.795Z,99698.50
2023-02-02T14:10:16.643Z,99703.28
2023-02-02T14:12:42.998Z,99704.03
2023-02-02T14:15:09.402Z,99713.59
2023-02-02T14:17:35.770Z,99716.38
2023-02-02T14:20:02.132Z,99717.94
2023-02-02T14:25:18.640Z,99733.81
2023-02-02T14:27:45.039Z,99736.13
2023-02-02T14:30:11.402Z,99738.59
2023-02-02T14:32:37.798Z,99743.75
2023-02-02T14:35:04.225Z,99758.06
2023-02-02T14:40:21.433Z,99761.63
2023-02-02T14:42:47.904Z,99769.41
2023-02-02T14:45:14.320Z,99771.78
2023-02-02T14:47:40.704Z,99775.78
2023-02-02T14:50:07.148Z,99780.16
2023-02-02T14:55:18.472Z,99815.44
2023-02-02T14:57:44.847Z,99809.06
2023-02-02T15:00:11.253Z,99818.19
2023-02-02T15:02:37.671Z,99818.16
2023-02-02T15:05:04.075Z,99822.53
2023-02-02T15:10:14.485Z,99839.22
2023-02-02T15:12:40.879Z,99851.50
2023-02-02T15:15:07.492Z,99860.25
2023-02-02T15:17:33.890Z,99873.72
2023-02-02T15:20:00.268Z,99879.84
2023-02-02T15:25:17.415Z,99906.81
2023-02-02T15:27:56.211Z,99911.47
2023-02-02T15:30:23.457Z,99925.13
2023-02-02T15:32:49.826Z,99922.94
2023-02-02T15:35:16.198Z,99932.59
2023-02-02T15:40:32.525Z,99942.47
2023-02-02T15:42:58.874Z,99946.41
2023-02-02T15:45:25.226Z,99958.41
2023-02-02T15:47:51.610Z,99952.00
2023-02-02T15:50:17.976Z,99964.25
2023-02-02T15:55:40.289Z,99980.66
2023-02-02T15:58:06.677Z,99994.94
2023-02-02T16:00:33.124Z,100005.66
2023-02-02T16:02:59.576Z,100009.63
2023-02-02T16:05:28.713Z,100023.50
2023-02-02T16:10:48.211Z,100033.03
2023-02-02T16:13:14.573Z,100040.97
2023-02-02T16:15:43.743Z,100046.94
2023-02-02T16:18:10.249Z,100055.25
2023-02-02T16:20:39.404Z,100054.81
2023-02-02T16:23:05.791Z,100064.00
2023-02-02T16:25:35.020Z,100071.91
2023-02-02T16:28:04.199Z,100070.31
2023-02-02T16:30:30.569Z,100071.94
2023-02-02T16:32:59.724Z,100077.81
2023-02-02T16:35:28.890Z,100081.44
2023-02-02T16:37:58.033Z,100082.63
2023-02-02T16:40:24.389Z,100094.94
2023-02-02T16:42:50.752Z,100090.94
2023-02-02T16:45:17.144Z,100102.88
2023-02-02T16:47:46.308Z,100112.00
2023-02-02T16:50:12.684Z,100112.03
2023-02-02T16:52:41.838Z,100117.16
2023-02-02T16:55:11.142Z,100119.56
2023-02-02T16:57:37.512Z,100133.03
2023-02-02T17:00:06.670Z,100137.84
2023-02-02T17:02:33.045Z,100149.72
2023-02-02T17:05:02.216Z,100147.75
2023-02-02T17:07:31.386Z,100146.94
2023-02-02T17:10:00.555Z,100159.25
2023-02-02T17:12:34.481Z,100160.06
2023-02-02T17:15:01.441Z,100165.25
2023-02-02T17:17:30.606Z,100167.22
2023-02-02T17:19:59.744Z,100181.50
2023-02-02T17:22:26.083Z,100179.09
2023-02-02T17:24:55.225Z,100188.63
2023-02-02T17:27:21.560Z,100195.75
2023-02-02T17:29:50.706Z,100204.06
2023-02-02T17:32:17.065Z,100204.13
2023-02-02T17:34:43.438Z,100207.66
2023-02-02T17:37:09.940Z,100215.22
2023-02-02T17:39:39.095Z,100214.47
2023-02-02T17:42:08.252Z,100220.38
2023-02-02T17:44:37.420Z,100229.88
2023-02-02T17:47:03.863Z,100231.50
2023-02-02T17:49:30.391Z,100232.66
2023-02-02T17:51:57.757Z,100238.63
2023-02-02T17:54:25.331Z,100242.53
2023-02-02T17:59:35.732Z,100259.97
2023-02-02T18:02:02.272Z,100264.31
2023-02-02T18:04:28.758Z,100277.06
2023-02-02T18:06:55.197Z,100267.91
2023-02-02T18:09:23.485Z,100282.63
2023-02-02T18:14:44.470Z,100283.81
2023-02-02T18:17:11.191Z,100288.56
2023-02-02T18:19:37.571Z,100294.91
2023-02-02T18:22:03.972Z,100299.66
2023-02-02T18:24:30.370Z,100317.13
2023-02-02T18:29:40.826Z,100322.28
2023-02-02T18:32:07.273Z,100330.63
2023-02-02T18:34:33.663Z,100332.59
2023-02-02T18:37:00.047Z,100336.59
2023-02-02T18:39:26.426Z,100342.13
2023-02-02T18:44:36.524Z,100345.31
2023-02-02T18:47:02.932Z,100350.09
2023-02-02T18:49:29.497Z,100352.84
2023-02-02T18:51:55.859Z,100351.25
2023-02-02T18:54:22.229Z,100352.84
2023-02-02T18:59:42.839Z,100372.72
2023-02-02T19:02:09.289Z,100373.53
2023-02-02T19:04:35.689Z,100377.50
2023-02-02T19:07:02.054Z,100392.97
2023-02-02T19:09:28.432Z,100394.56
2023-02-02T19:14:48.821Z,100410.09
2023-02-02T19:17:15.214Z,100423.16
2023-02-02T19:19:41.567Z,100417.19
2023-02-02T19:22:07.991Z,100432.72
2023-02-02T19:24:34.374Z,100437.44
2023-02-02T19:29:44.774Z,100454.97
2023-02-02T19:32:11.153Z,100458.91
2023-02-02T19:34:37.714Z,100465.69
2023-02-02T19:37:04.097Z,100464.06
2023-02-02T19:39:30.450Z,100463.28
2023-02-02T19:44:50.605Z,100474.41
2023-02-02T19:47:17.145Z,100474.00
2023-02-02T19:49:43.560Z,100489.88
2023-02-02T19:52:09.932Z,100486.72
2023-02-02T19:54:36.308Z,100494.66
2023-02-02T19:59:46.417Z,100497.06
2023-02-02T20:02:12.783Z,100510.94
2023-02-02T20:04:39.158Z,100512.13
2023-02-02T20:07:05.557Z,100528.03
2023-02-02T20:09:32.008Z,100530.03
2023-02-02T20:11:58.373Z,100535.19
2023-02-02T20:14:24.741Z,100544.72
2023-02-02T20:16:51.171Z,100549.47
2023-02-02T20:19:17.558Z,100566.53
2023-02-02T20:21:44.108Z,100562.56
2023-02-02T20:24:11.378Z,100568.94
2023-02-02T20:26:37.798Z,100565.78
2023-02-02T20:29:04.221Z,100565.34
2023-02-02T20:31:30.600Z,100569.72
2023-02-02T20:33:57.083Z,100581.22
2023-02-02T20:36:23.465Z,100588.78
2023-02-02T20:38:50.061Z,100588.00
2023-02-02T20:41:16.658Z,100591.19
2023-02-02T20:43:43.064Z,100594.75
2023-02-02T20:46:10.356Z,100600.31
2023-02-02T20:48:36.924Z,100602.31
2023-02-02T20:51:03.492Z,100613.81
2023-02-02T20:53:29.866Z,100612.22
2023-02-02T20:55:56.250Z,100614.59
2023-02-02T20:58:23.294Z,100616.59
2023-02-02T21:00:49.690Z,100624.94
2023-02-02T21:03:25.467Z,100624.94
2023-02-02T21:05:51.815Z,100628.13
2023-02-02T21:08:19.051Z,100630.91
2023-02-02T21:10:45.412Z,100634.47
2023-02-02T21:13:11.936Z,100640.41
2023-02-02T21:15:38.313Z,100638.84
2023-02-02T21:18:04.745Z,100653.13
2023-02-02T21:20:31.154Z,100649.56
2023-02-02T21:22:57.521Z,100650.34
2023-02-02T21:25:24.053Z,100665.81
2023-02-02T21:27:50.426Z,100666.22
2023-02-02T21:30:16.783Z,100671.00
2023-02-02T21:32:43.325Z,100689.66
2023-02-02T21:35:09.680Z,100687.66
2023-02-02T21:37:36.038Z,100682.94
2023-02-02T21:40:02.421Z,100692.06
2023-02-02T21:42:28.799Z,100692.06
2023-02-02T21:44:55.334Z,100692.06
2023-02-02T21:47:21.719Z,100705.56
2023-02-02T21:49:48.122Z,100704.75
2023-02-02T21:52:14.547Z,100709.91
2023-02-02T21:54:40.909Z,100712.31
2023-02-02T21:57:07.283Z,100704.34
2023-02-02T21:59:36.453Z,100714.69
2023-02-02T22:02:02.912Z,100717.06
2023-02-02T22:04:29.419Z,100729.75
2023-02-02T22:06:55.975Z,100727.81
2023-02-02T22:09:22.511Z,100727.81
2023-02-02T22:11:50.010Z,100721.84
2023-02-02T22:14:16.749Z,100727.38
2023-02-02T22:16:44.412Z,100734.91
2023-02-02T22:19:10.920Z,100739.28
2023-02-02T22:21:37.472Z,100737.31
2023-02-02T22:24:04.032Z,100743.66
2023-02-02T22:26:31.499Z,100749.22
2023-02-02T22:28:58.021Z,100758.38
2023-02-02T22:31:25.606Z,100753.63
2023-02-02T22:33:53.111Z,100763.09
2023-02-02T22:36:19.636Z,100752.81
2023-02-02T22:38:47.120Z,100758.38
2023-02-02T22:41:14.492Z,100759.47
2023-02-02T22:43:41.066Z,100754.72
2023-02-02T22:46:07.645Z,100764.66
2023-02-02T22:48:36.859Z,100769.78
2023-02-02T22:51:05.256Z,100778.13
2023-02-02T22:53:31.734Z,100775.72
2023-02-02T22:55:58.370Z,100782.88
2023-02-02T22:58:27.598Z,100784.47
2023-02-02T23:00:54.882Z,100786.03
2023-02-02T23:03:22.163Z,100796.78
2023-02-02T23:05:49.771Z,100792.00
2023-02-02T23:08:17.047Z,100798.38
2023-02-02T23:10:43.431Z,100795.53
2023-02-02T23:13:10.741Z,100807.88
2023-02-02T23:15:37.122Z,100804.72
2023-02-02T23:18:03.649Z,100825.34
2023-02-02T23:20:30.988Z,100823.38
2023-02-02T23:22:57.496Z,100821.41
2023-02-02T23:25:24.006Z,100830.91
2023-02-02T23:27:51.402Z,100826.97
2023-02-02T23:30:18.782Z,100832.91
2023-02-02T23:32:47.108Z,100832.13
2023-02-02T23:35:13.504Z,100829.31
2023-02-02T23:37:39.904Z,100834.50
2023-02-02T23:40:06.381Z,100840.03
2023-02-02T23:42:32.837Z,100840.41
2023-02-02T23:44:59.226Z,100844.78
2023-02-02T23:47:25.601Z,100849.53
2023-02-02T23:49:51.992Z,100848.38
2023-02-02T23:52:19.238Z,100846.38
2023-02-02T23:54:45.682Z,100857.88
2023-02-02T23:57:12.075Z,100869.00
2023-02-02T23:59:38.462Z,100867.38
